Time;durP1;ratioP1;P1;durP2;ratioP2;P2;SDS_P1;SDS_P2;PMS_P1;PMS_P2;Temp;Humidity;BMP_temperature;BMP_pressure;BME280_temperature;BME280_humidity;BME280_pressure;Samples;Min_cycle;Max_cycle;Signal;HPM_P1;HPM_P2
2021/09/15 00:00:15;;;;;;;11.07;8.85;;;20.30;92.80;;;;;;5011652;28;20018;-66
2021/09/15 00:02:41;;;;;;;11.40;9.10;;;20.40;92.90;;;;;;5011187;28;20029;-66
2021/09/15 00:05:07;;;;;;;16.30;8.90;;;20.40;92.90;;;;;;5011855;28;20363;-66
2021/09/15 00:07:34;;;;;;;10.23;7.95;;;20.30;92.90;;;;;;5011779;28;20045;-66
2021/09/15 00:10:00;;;;;;;10.55;7.88;;;20.40;92.90;;;;;;5011763;28;20045;-66
2021/09/15 00:12:26;;;;;;;9.77;7.60;;;20.30;92.80;;;;;;5011859;28;20029;-66
2021/09/15 00:14:52;;;;;;;14.13;8.63;;;20.40;92.80;;;;;;5011285;28;20026;-66
2021/09/15 00:17:17;;;;;;;9.60;7.30;;;20.40;92.90;;;;;;5011244;28;20041;-66
2021/09/15 00:19:43;;;;;;;12.38;8.45;;;20.30;92.80;;;;;;5010090;28;20122;-66
2021/09/15 00:22:08;;;;;;;9.43;7.38;;;20.30;93.10;;;;;;5011219;28;20037;-66
2021/09/15 00:24:34;;;;;;;9.00;7.00;;;20.30;92.90;;;;;;5010934;28;20105;-66
2021/09/15 00:26:59;;;;;;;12.70;8.65;;;20.30;92.90;;;;;;5007151;28;20026;-66
2021/09/15 00:29:25;;;;;;;11.55;7.82;;;20.40;93.00;;;;;;5011159;28;20022;-66
2021/09/15 00:31:51;;;;;;;10.27;7.20;;;20.30;93.00;;;;;;5009614;28;20379;-66
2021/09/15 00:34:16;;;;;;;12.70;7.47;;;20.30;93.00;;;;;;5010946;28;20033;-66
2021/09/15 00:36:42;;;;;;;11.85;8.65;;;20.40;93.00;;;;;;5011092;28;20022;-66
2021/09/15 00:39:07;;;;;;;8.52;7.57;;;20.30;93.20;;;;;;5011277;28;20109;-66
2021/09/15 00:41:33;;;;;;;12.90;8.70;;;20.30;92.90;;;;;;5011379;28;20514;-66
2021/09/15 00:44:07;;;;;;;15.93;8.18;;;20.20;92.90;;;;;;5009032;28;20030;-66
2021/09/15 00:46:34;;;;;;;10.00;7.68;;;20.20;92.90;;;;;;5011095;28;20404;-66
2021/09/15 00:48:59;;;;;;;11.38;8.20;;;20.20;93.00;;;;;;5011072;28;20117;-66
2021/09/15 00:51:26;;;;;;;9.82;8.20;;;20.20;93.10;;;;;;5011097;28;20046;-66
2021/09/15 00:53:52;;;;;;;11.02;8.38;;;20.10;93.10;;;;;;5010491;28;20459;-67
2021/09/15 00:56:18;;;;;;;12.85;8.88;;;20.00;93.20;;;;;;5010941;28;20036;-66
2021/09/15 00:58:43;;;;;;;11.23;8.90;;;20.00;93.30;;;;;;5011016;28;20033;-66
2021/09/15 01:01:09;;;;;;;7.82;7.03;;;19.90;93.30;;;;;;5010732;28;20504;-65
2021/09/15 01:03:35;;;;;;;11.52;8.05;;;20.00;93.40;;;;;;5010552;28;20386;-66
2021/09/15 01:06:00;;;;;;;9.18;6.93;;;20.00;93.40;;;;;;5010722;28;20026;-66
2021/09/15 01:08:27;;;;;;;9.65;7.32;;;20.00;93.40;;;;;;5010692;28;20044;-66
2021/09/15 01:10:53;;;;;;;9.15;7.07;;;20.00;93.40;;;;;;5009536;28;20032;-67
2021/09/15 01:13:20;;;;;;;9.10;7.30;;;20.00;93.30;;;;;;5010356;28;20030;-66
2021/09/15 01:15:45;;;;;;;15.60;8.18;;;20.00;93.30;;;;;;5010307;28;20130;-66
2021/09/15 01:18:15;;;;;;;8.35;7.35;;;20.00;93.30;;;;;;5010890;28;20058;-66
2021/09/15 01:20:41;;;;;;;9.18;6.55;;;20.00;93.50;;;;;;5010549;28;20030;-66
2021/09/15 01:23:07;;;;;;;8.23;7.13;;;20.10;93.50;;;;;;5010195;28;20374;-67
2021/09/15 01:25:32;;;;;;;11.90;7.53;;;20.10;93.50;;;;;;5006419;28;20018;-66
2021/09/15 01:27:58;;;;;;;9.35;6.97;;;20.10;93.50;;;;;;5010251;28;20385;-66
2021/09/15 01:30:24;;;;;;;13.43;7.50;;;20.10;93.50;;;;;;5010332;28;20084;-66
2021/09/15 01:32:49;;;;;;;8.98;6.97;;;20.10;93.50;;;;;;5010153;28;20030;-66
2021/09/15 01:35:15;;;;;;;10.48;8.40;;;20.10;93.50;;;;;;5010455;28;20101;-66
2021/09/15 01:37:41;;;;;;;12.35;9.68;;;20.10;93.50;;;;;;5010274;28;20599;-66
2021/09/15 01:40:07;;;;;;;11.75;10.02;;;20.00;93.60;;;;;;5010186;28;20026;-67
2021/09/15 01:42:33;;;;;;;13.35;9.93;;;20.00;93.70;;;;;;5010011;28;20053;-67
2021/09/15 01:44:58;;;;;;;16.30;10.60;;;20.00;93.70;;;;;;5010422;28;20049;-66
2021/09/15 01:47:24;;;;;;;14.32;10.15;;;19.90;93.80;;;;;;5010519;28;20022;-66
2021/09/15 01:49:50;;;;;;;15.13;10.10;;;19.90;93.80;;;;;;5010309;28;20034;-66
2021/09/15 01:52:17;;;;;;;13.07;9.77;;;19.80;93.80;;;;;;5010287;28;20505;-67
2021/09/15 01:54:44;;;;;;;13.80;9.05;;;19.80;93.90;;;;;;5009654;28;20101;-66
2021/09/15 01:57:10;;;;;;;12.57;8.88;;;19.70;94.10;;;;;;5009008;28;20037;-66
2021/09/15 01:59:35;;;;;;;13.77;9.15;;;19.70;94.10;;;;;;5010277;28;20101;-66
2021/09/15 02:02:01;;;;;;;10.52;8.85;;;19.80;94.10;;;;;;5010480;28;20088;-66
2021/09/15 02:04:26;;;;;;;12.02;9.48;;;19.70;94.10;;;;;;5009850;28;20022;-66
2021/09/15 02:06:54;;;;;;;10.60;8.40;;;19.70;94.10;;;;;;5012974;28;20026;-67
2021/09/15 02:09:20;;;;;;;13.15;8.05;;;19.80;94.20;;;;;;5014032;28;20364;-67
2021/09/15 02:11:46;;;;;;;10.48;9.32;;;19.70;94.30;;;;;;5014155;28;20113;-67
2021/09/15 02:14:12;;;;;;;14.32;8.95;;;19.80;94.20;;;;;;5013429;28;20441;-67
2021/09/15 02:16:38;;;;;;;16.40;9.05;;;19.80;94.20;;;;;;5013891;28;20064;-67
2021/09/15 02:19:04;;;;;;;10.98;8.65;;;19.70;94.10;;;;;;5014010;28;20030;-67
2021/09/15 02:21:30;;;;;;;12.75;8.10;;;19.70;94.10;;;;;;5010506;28;20029;-67
2021/09/15 02:23:56;;;;;;;12.48;9.43;;;19.70;94.10;;;;;;5013182;28;20046;-66
2021/09/15 02:26:22;;;;;;;11.38;8.77;;;19.70;94.40;;;;;;5013284;28;20054;-67
2021/09/15 02:28:48;;;;;;;17.60;9.00;;;19.70;94.20;;;;;;5013300;28;20083;-66
2021/09/15 02:31:14;;;;;;;9.25;8.05;;;19.70;94.20;;;;;;5013623;28;20029;-66
2021/09/15 02:33:40;;;;;;;17.13;9.85;;;19.70;94.30;;;;;;5013215;28;20033;-66
2021/09/15 02:36:05;;;;;;;13.20;9.23;;;19.70;94.20;;;;;;5013212;28;20034;-66
2021/09/15 02:38:31;;;;;;;12.45;10.02;;;19.60;94.20;;;;;;5013448;28;20028;-66
2021/09/15 02:40:58;;;;;;;14.13;10.07;;;19.60;94.50;;;;;;5013267;28;20060;-66
2021/09/15 02:43:23;;;;;;;14.35;10.60;;;19.60;94.30;;;;;;5048311;22;20457;-67
2021/09/15 02:45:49;;;;;;;17.75;11.07;;;19.50;94.30;;;;;;5053207;28;20155;-67
2021/09/15 02:48:14;;;;;;;14.95;12.25;;;19.50;94.40;;;;;;5052633;28;20025;-67
2021/09/15 02:50:40;;;;;;;17.50;12.35;;;19.40;94.50;;;;;;5064596;28;20070;-67
2021/09/15 02:53:08;;;;;;;15.95;11.85;;;19.30;94.60;;;;;;5072329;28;20380;-67
2021/09/15 02:55:34;;;;;;;19.45;13.15;;;19.30;94.70;;;;;;5061151;28;20396;-67
2021/09/15 02:58:00;;;;;;;17.42;11.98;;;19.30;94.80;;;;;;5052680;28;20017;-66
2021/09/15 03:00:25;;;;;;;16.55;12.27;;;19.20;94.80;;;;;;5052944;28;20033;-66
2021/09/15 03:02:51;;;;;;;18.27;10.98;;;19.20;95.00;;;;;;5051940;28;20240;-66
2021/09/15 03:05:16;;;;;;;12.68;10.07;;;19.20;95.00;;;;;;5052402;28;20059;-67
2021/09/15 03:07:42;;;;;;;14.07;9.52;;;19.20;95.10;;;;;;5052541;28;20082;-66
2021/09/15 03:10:08;;;;;;;13.00;10.10;;;19.30;95.10;;;;;;5066699;28;20032;-67
2021/09/15 03:12:34;;;;;;;15.13;10.45;;;19.30;95.10;;;;;;5054023;28;20040;-67
2021/09/15 03:15:00;;;;;;;12.93;9.35;;;19.40;95.00;;;;;;5072417;28;20116;-67
2021/09/15 03:17:26;;;;;;;14.13;10.00;;;19.30;94.90;;;;;;5070974;28;20108;-66
2021/09/15 03:19:51;;;;;;;10.93;9.13;;;19.30;94.90;;;;;;5071763;28;20093;-66
2021/09/15 03:22:17;;;;;;;10.52;8.75;;;19.30;95.00;;;;;;5063258;28;20465;-67
2021/09/15 03:24:42;;;;;;;11.85;9.02;;;19.40;95.10;;;;;;5052013;28;20048;-67
2021/09/15 03:27:08;;;;;;;10.65;8.35;;;19.40;95.10;;;;;;5051883;28;20119;-67
2021/09/15 03:29:34;;;;;;;11.02;8.35;;;19.40;95.30;;;;;;5062665;28;20040;-67
2021/09/15 03:32:00;;;;;;;11.38;8.18;;;19.50;95.10;;;;;;5071943;28;20029;-67
2021/09/15 03:34:26;;;;;;;10.82;7.70;;;19.50;95.10;;;;;;5071823;28;20036;-66
2021/09/15 03:36:52;;;;;;;10.48;8.55;;;19.50;95.00;;;;;;5071706;28;20429;-67
2021/09/15 03:39:18;;;;;;;11.00;8.65;;;19.50;95.00;;;;;;5059699;28;20148;-67
2021/09/15 03:41:44;;;;;;;11.63;9.75;;;19.50;94.90;;;;;;5051789;28;20497;-67
2021/09/15 03:44:09;;;;;;;10.63;8.98;;;19.50;94.90;;;;;;5051159;28;20037;-66
2021/09/15 03:46:35;;;;;;;11.35;8.60;;;19.50;94.90;;;;;;5051578;28;20456;-66
2021/09/15 03:49:01;;;;;;;10.35;8.45;;;19.50;95.00;;;;;;5051585;28;20036;-67
2021/09/15 03:51:27;;;;;;;9.45;8.38;;;19.50;95.00;;;;;;5051305;28;20064;-67
2021/09/15 03:53:52;;;;;;;8.80;7.72;;;19.50;95.00;;;;;;5051356;28;20059;-67
2021/09/15 03:56:18;;;;;;;10.52;7.97;;;19.50;95.00;;;;;;5065317;28;20028;-67
2021/09/15 03:58:44;;;;;;;8.98;8.07;;;19.50;95.00;;;;;;5056365;28;20079;-66
2021/09/15 04:01:10;;;;;;;9.27;7.47;;;19.50;95.00;;;;;;5051416;28;20025;-67
2021/09/15 04:03:36;;;;;;;12.80;7.88;;;19.60;95.00;;;;;;5050885;28;20167;-67
2021/09/15 04:06:02;;;;;;;9.90;8.25;;;19.60;94.90;;;;;;5033315;28;20040;-67
2021/09/15 04:08:28;;;;;;;11.35;7.72;;;19.60;94.90;;;;;;5059591;28;20032;-67
2021/09/15 04:10:53;;;;;;;10.38;8.23;;;19.60;94.90;;;;;;5051451;28;20525;-67
2021/09/15 04:13:19;;;;;;;11.02;8.75;;;19.70;94.90;;;;;;5050662;28;20033;-66
2021/09/15 04:15:45;;;;;;;12.75;9.98;;;19.60;94.90;;;;;;5051183;28;20025;-66
2021/09/15 04:18:12;;;;;;;13.73;9.23;;;19.60;94.90;;;;;;5050952;28;20017;-67
2021/09/15 04:20:39;;;;;;;13.18;9.80;;;19.60;95.00;;;;;;5051031;28;20017;-67
2021/09/15 04:23:11;;;;;;;16.20;10.02;;;19.50;95.10;;;;;;5057930;28;20457;-66
2021/09/15 04:31:18;;;;;;;10.80;9.55;;;19.50;95.20;;;;;;5051292;28;20546;-68
2021/09/15 04:33:44;;;;;;;17.23;11.23;;;19.50;95.20;;;;;;5050752;28;20533;-67
2021/09/15 04:36:09;;;;;;;14.23;11.30;;;19.50;95.20;;;;;;5049888;28;20063;-67
2021/09/15 04:38:36;;;;;;;13.07;11.25;;;19.40;95.20;;;;;;5050181;28;20040;-68
2021/09/15 04:41:02;;;;;;;15.57;11.35;;;19.40;95.30;;;;;;5065856;28;20670;-67
2021/09/15 04:43:27;;;;;;;16.20;11.77;;;19.40;95.20;;;;;;5069240;28;20123;-67
2021/09/15 04:45:53;;;;;;;15.15;11.52;;;19.40;95.20;;;;;;5055005;28;20326;-67
2021/09/15 04:48:18;;;;;;;14.95;11.48;;;19.30;95.20;;;;;;5050847;28;20025;-67
2021/09/15 04:50:44;;;;;;;14.63;11.73;;;19.30;95.30;;;;;;5050582;28;20025;-67
2021/09/15 04:53:09;;;;;;;15.70;12.23;;;19.30;95.30;;;;;;5050147;28;20039;-67
2021/09/15 04:55:35;;;;;;;18.80;13.20;;;19.30;95.40;;;;;;5050355;28;20025;-68
2021/09/15 04:58:01;;;;;;;18.50;12.23;;;19.20;95.40;;;;;;5050651;28;20099;-67
2021/09/15 05:00:27;;;;;;;17.27;12.48;;;19.20;95.50;;;;;;5050350;28;20083;-67
2021/09/15 05:02:53;;;;;;;19.27;13.23;;;19.10;95.50;;;;;;5050213;28;20024;-67
2021/09/15 05:05:18;;;;;;;15.18;11.40;;;19.10;95.60;;;;;;5050466;28;20021;-67
2021/09/15 05:07:44;;;;;;;13.98;11.35;;;19.10;95.70;;;;;;5050231;28;20029;-67
2021/09/15 05:10:09;;;;;;;11.43;9.52;;;19.10;95.70;;;;;;5050410;28;20021;-67
2021/09/15 05:12:35;;;;;;;12.55;9.18;;;19.10;95.70;;;;;;5049760;28;20061;-66
2021/09/15 05:15:01;;;;;;;13.48;10.18;;;19.20;95.80;;;;;;5050744;28;20100;-67
2021/09/15 05:17:26;;;;;;;15.15;9.57;;;19.20;95.80;;;;;;5032202;28;20490;-68
2021/09/15 05:19:52;;;;;;;10.23;8.35;;;19.20;95.80;;;;;;5050150;28;20024;-67
2021/09/15 05:22:18;;;;;;;10.65;8.82;;;19.30;95.80;;;;;;5050168;28;20021;-67
2021/09/15 05:24:43;;;;;;;13.73;9.00;;;19.20;95.70;;;;;;5049493;28;20430;-67
2021/09/15 05:27:09;;;;;;;10.40;8.25;;;19.20;95.70;;;;;;5049313;28;20028;-67
2021/09/15 05:29:34;;;;;;;10.27;8.27;;;19.20;95.60;;;;;;5049932;28;20025;-67
2021/09/15 05:32:00;;;;;;;9.38;8.25;;;19.20;95.70;;;;;;5050321;28;20075;-67
2021/09/15 05:34:26;;;;;;;12.10;8.57;;;19.20;95.60;;;;;;5049484;28;20033;-67
2021/09/15 05:36:52;;;;;;;10.15;7.65;;;19.20;95.60;;;;;;5049869;28;20036;-67
2021/09/15 05:39:17;;;;;;;11.68;8.45;;;19.20;95.80;;;;;;5049890;28;20033;-66
2021/09/15 05:41:43;;;;;;;9.68;7.55;;;19.30;95.60;;;;;;5053210;28;20017;-68
2021/09/15 05:44:08;;;;;;;9.13;7.18;;;19.30;95.60;;;;;;5036142;28;20481;-67
2021/09/15 05:46:34;;;;;;;10.25;7.18;;;19.30;95.60;;;;;;5054622;28;20029;-67
2021/09/15 05:49:03;;;;;;;11.93;7.53;;;19.30;95.60;;;;;;5052846;28;20060;-68
2021/09/15 05:51:28;;;;;;;11.00;7.45;;;19.30;95.50;;;;;;5058201;28;20020;-67
2021/09/15 05:53:54;;;;;;;10.95;7.60;;;19.30;95.50;;;;;;5073322;28;20032;-67
2021/09/15 05:56:20;;;;;;;9.07;6.80;;;19.30;95.50;;;;;;5073864;28;20021;-67
2021/09/15 05:58:45;;;;;;;8.57;6.38;;;19.30;95.50;;;;;;5073772;28;20111;-68
2021/09/15 06:01:11;;;;;;;10.63;6.78;;;19.30;95.40;;;;;;5054675;28;20095;-67
2021/09/15 06:03:37;;;;;;;11.52;6.15;;;19.30;95.40;;;;;;5053647;28;20122;-68
2021/09/15 06:06:02;;;;;;;11.82;6.20;;;19.30;95.40;;;;;;5053555;28;20481;-66
2021/09/15 06:08:28;;;;;;;8.55;5.88;;;19.30;95.40;;;;;;5053573;28;20029;-66
2021/09/15 06:10:54;;;;;;;8.35;5.53;;;19.30;95.30;;;;;;5053349;28;20025;-67
2021/09/15 06:13:19;;;;;;;9.50;5.43;;;19.40;95.30;;;;;;5053625;28;20112;-67
2021/09/15 06:15:45;;;;;;;6.88;5.35;;;19.30;95.20;;;;;;5035224;28;20036;-68
2021/09/15 06:18:11;;;;;;;7.82;5.65;;;19.40;95.30;;;;;;5053681;28;20027;-67
2021/09/15 06:20:36;;;;;;;8.63;4.95;;;19.40;95.20;;;;;;5035592;28;20025;-68
2021/09/15 06:23:02;;;;;;;7.68;6.35;;;19.40;95.20;;;;;;5059522;28;20164;-67
2021/09/15 06:25:28;;;;;;;6.57;4.80;;;19.40;95.20;;;;;;5073479;28;20077;-67
2021/09/15 06:27:55;;;;;;;7.55;5.57;;;19.40;95.20;;;;;;5059078;28;20029;-67
2021/09/15 06:30:21;;;;;;;5.78;5.18;;;19.50;95.30;;;;;;5070857;28;20048;-67
2021/09/15 06:32:47;;;;;;;6.63;4.97;;;19.50;95.30;;;;;;5072932;28;20024;-68
2021/09/15 06:35:13;;;;;;;7.05;5.50;;;19.50;95.20;;;;;;5073251;28;20035;-67
2021/09/15 06:37:40;;;;;;;5.65;4.32;;;19.50;95.10;;;;;;5072255;28;20035;-67
2021/09/15 06:40:07;;;;;;;8.50;5.38;;;19.50;95.30;;;;;;5073266;28;20448;-67
2021/09/15 06:42:33;;;;;;;6.75;5.03;;;19.40;95.00;;;;;;5059421;28;20025;-67
2021/09/15 06:44:58;;;;;;;6.72;4.78;;;19.40;95.00;;;;;;5053010;28;20416;-67
2021/09/15 06:47:24;;;;;;;6.95;5.22;;;19.40;95.00;;;;;;5053325;28;20033;-67
2021/09/15 06:49:50;;;;;;;5.50;4.30;;;19.40;95.20;;;;;;5042677;28;20116;-67
2021/09/15 06:52:16;;;;;;;6.85;4.75;;;19.40;95.00;;;;;;5069522;28;20025;-67
2021/09/15 06:54:45;;;;;;;9.75;4.95;;;19.40;95.00;;;;;;5072376;28;20024;-67
2021/09/15 06:57:10;;;;;;;11.45;4.88;;;19.30;95.00;;;;;;5072926;28;20104;-67
2021/09/15 06:59:36;;;;;;;10.93;4.97;;;19.30;95.00;;;;;;5059727;28;20105;-67
2021/09/15 07:02:02;;;;;;;8.77;4.65;;;19.30;95.10;;;;;;5052644;28;20021;-67
2021/09/15 07:04:27;;;;;;;8.85;4.63;;;19.30;95.10;;;;;;5055649;28;20406;-67
2021/09/15 07:06:53;;;;;;;13.98;4.95;;;19.30;95.10;;;;;;5053103;28;20346;-67
2021/09/15 07:09:19;;;;;;;12.77;4.85;;;19.30;95.20;;;;;;5054789;28;20032;-67
2021/09/15 07:11:44;;;;;;;6.55;4.45;;;19.30;95.20;;;;;;5058943;28;20025;-67
2021/09/15 07:14:10;;;;;;;6.88;4.30;;;19.30;95.30;;;;;;5041658;28;20025;-67
2021/09/15 07:16:35;;;;;;;10.57;5.05;;;19.30;95.40;;;;;;5052552;28;20037;-67
2021/09/15 07:19:01;;;;;;;6.45;4.70;;;19.30;95.50;;;;;;5052606;28;20100;-67
2021/09/15 07:21:28;;;;;;;12.25;5.07;;;19.30;95.50;;;;;;5052022;28;20078;-67
2021/09/15 07:23:54;;;;;;;7.32;5.10;;;19.30;95.50;;;;;;5051785;28;20021;-67
2021/09/15 07:26:19;;;;;;;7.65;5.93;;;19.30;95.50;;;;;;5052230;28;20135;-67
2021/09/15 07:28:45;;;;;;;6.38;5.05;;;19.20;95.50;;;;;;5056838;28;20107;-67
2021/09/15 07:31:11;;;;;;;11.13;4.60;;;19.20;95.50;;;;;;5072192;28;20029;-67
2021/09/15 07:33:36;;;;;;;9.63;5.40;;;19.20;95.60;;;;;;5071999;28;20036;-67
2021/09/15 07:36:03;;;;;;;6.75;5.20;;;19.20;95.70;;;;;;5071919;28;20028;-67
2021/09/15 07:38:29;;;;;;;6.88;5.35;;;19.20;95.70;;;;;;5064783;28;20115;-67
2021/09/15 07:40:55;;;;;;;8.02;4.80;;;19.20;95.80;;;;;;5054145;28;20041;-67
2021/09/15 07:43:21;;;;;;;7.72;5.00;;;19.20;95.90;;;;;;5057028;28;20441;-67
2021/09/15 07:45:46;;;;;;;8.38;5.15;;;19.20;95.90;;;;;;5051558;28;20056;-67
2021/09/15 07:48:12;;;;;;;11.52;5.43;;;19.20;95.90;;;;;;5051309;28;20473;-67
2021/09/15 07:50:38;;;;;;;13.15;5.20;;;19.20;95.90;;;;;;5065913;28;20032;-67
2021/09/15 07:53:03;;;;;;;9.43;5.53;;;19.20;96.00;;;;;;5071296;28;20187;-67
2021/09/15 07:55:29;;;;;;;6.40;5.13;;;19.20;96.00;;;;;;5053779;28;20017;-67
2021/09/15 07:57:54;;;;;;;12.27;5.28;;;19.20;96.00;;;;;;5071442;28;20068;-68
2021/09/15 08:00:21;;;;;;;6.38;4.68;;;19.20;96.00;;;;;;5052663;28;20029;-67
2021/09/15 08:02:47;;;;;;;5.45;4.57;;;19.20;96.00;;;;;;5059789;28;20056;-67
2021/09/15 08:05:14;;;;;;;9.80;5.38;;;19.20;96.10;;;;;;5051121;28;20393;-67
2021/09/15 08:07:39;;;;;;;8.88;5.30;;;19.20;96.10;;;;;;5051012;28;20028;-67
2021/09/15 08:10:06;;;;;;;8.10;4.97;;;19.20;96.10;;;;;;5067020;28;20028;-67
2021/09/15 08:12:31;;;;;;;6.60;4.93;;;19.20;96.20;;;;;;5071418;28;20051;-67
2021/09/15 08:14:57;;;;;;;7.93;5.15;;;19.20;96.20;;;;;;5061374;28;20029;-67
2021/09/15 08:17:23;;;;;;;9.80;5.18;;;19.20;96.20;;;;;;5051411;28;20028;-67
2021/09/15 08:19:48;;;;;;;5.97;4.97;;;19.20;96.20;;;;;;5051138;28;20029;-67
2021/09/15 08:22:15;;;;;;;7.00;4.97;;;19.20;96.30;;;;;;5049793;28;20028;-67
2021/09/15 08:24:40;;;;;;;9.10;4.72;;;19.20;96.20;;;;;;5051782;28;20060;-67
2021/09/15 08:27:06;;;;;;;6.47;4.53;;;19.30;96.30;;;;;;5051143;28;20469;-68
2021/09/15 08:29:31;;;;;;;8.73;5.43;;;19.30;96.30;;;;;;5051105;28;20078;-67
2021/09/15 08:31:57;;;;;;;7.93;5.10;;;19.30;96.40;;;;;;5051060;28;20441;-68
2021/09/15 08:34:23;;;;;;;8.55;5.47;;;19.30;96.40;;;;;;5051347;28;20036;-68
2021/09/15 08:36:48;;;;;;;7.40;4.97;;;19.30;96.40;;;;;;5051111;28;20044;-68
2021/09/15 08:39:14;;;;;;;8.05;5.15;;;19.30;96.40;;;;;;5059097;28;20027;-68
2021/09/15 08:41:40;;;;;;;6.70;4.85;;;19.40;96.50;;;;;;5071062;28;20520;-68
2021/09/15 08:44:05;;;;;;;5.93;4.93;;;19.40;96.50;;;;;;5105394;22;20042;-65
2021/09/15 08:46:33;;;;;;;10.55;4.53;;;19.40;96.50;;;;;;5012215;28;20096;-68
2021/09/15 08:49:00;;;;;;;7.03;3.58;;;19.50;96.60;;;;;;5011383;28;20037;-68
2021/09/15 08:51:27;;;;;;;7.43;3.67;;;19.50;96.50;;;;;;5011168;28;20033;-68
2021/09/15 08:53:54;;;;;;;6.25;3.35;;;19.50;96.40;;;;;;5010849;28;20030;-68
2021/09/15 08:56:20;;;;;;;4.85;3.00;;;19.60;96.30;;;;;;5030424;28;20503;-68
2021/09/15 08:58:46;;;;;;;4.70;3.60;;;19.60;96.20;;;;;;5013196;28;20037;-68
2021/09/15 09:01:18;;;;;;;7.15;3.45;;;19.60;96.10;;;;;;5030882;28;20018;-68
2021/09/15 09:03:45;;;;;;;6.13;2.97;;;19.70;96.10;;;;;;5012637;28;20028;-68
2021/09/15 09:06:12;;;;;;;8.00;3.83;;;19.70;96.10;;;;;;5030117;28;20022;-65
2021/09/15 09:08:39;;;;;;;4.65;3.28;;;19.70;96.10;;;;;;5012897;28;20523;-68
2021/09/15 09:11:09;;;;;;;7.88;3.30;;;19.70;96.00;;;;;;5030658;28;20026;-66
2021/09/15 09:13:55;;;;;;;7.80;3.05;;;19.70;95.90;;;;;;5029946;28;20496;-68
2021/09/15 09:16:40;;;;;;;7.18;3.33;;;19.80;95.90;;;;;;5029510;28;20029;-68
2021/09/15 09:19:08;;;;;;;5.90;3.72;;;19.80;95.80;;;;;;5030553;28;20101;-68
2021/09/15 09:21:37;;;;;;;6.68;3.60;;;19.80;95.90;;;;;;5030443;28;20164;-68
2021/09/15 09:24:05;;;;;;;6.07;3.67;;;19.80;95.80;;;;;;5025235;28;20449;-65
2021/09/15 09:26:50;;;;;;;4.65;3.10;;;19.80;95.80;;;;;;5030136;28;20045;-68
2021/09/15 09:29:21;;;;;;;6.40;3.40;;;19.80;95.90;;;;;;5029755;28;20025;-68
2021/09/15 09:32:00;;;;;;;14.98;10.20;;;19.90;96.00;;;;;;5030532;28;20390;-68
2021/09/15 09:34:26;;;;;;;10.32;4.35;;;19.90;96.00;;;;;;5029845;28;20106;-67
2021/09/15 09:36:59;;;;;;;8.40;4.03;;;20.00;95.90;;;;;;5030057;28;20029;-67
2021/09/15 09:39:35;;;;;;;7.75;3.95;;;20.00;95.90;;;;;;5030156;28;20044;-68
2021/09/15 09:42:01;;;;;;;4.97;3.65;;;20.00;96.00;;;;;;5030450;28;20044;-68
2021/09/15 09:44:28;;;;;;;5.78;3.75;;;20.00;95.90;;;;;;5044280;28;20033;-68
2021/09/15 09:46:53;;;;;;;5.25;3.42;;;20.00;95.80;;;;;;5030308;28;20431;-68
2021/09/15 09:49:19;;;;;;;5.60;4.07;;;20.00;95.80;;;;;;5029944;28;20107;-68
2021/09/15 09:51:45;;;;;;;5.70;3.90;;;19.90;95.80;;;;;;5030143;28;20046;-68
2021/09/15 09:54:18;;;;;;;9.88;3.50;;;19.90;95.70;;;;;;5029849;28;20385;-68
2021/09/15 09:56:45;;;;;;;7.93;4.20;;;19.90;95.80;;;;;;5012316;28;20028;-68
2021/09/15 09:59:12;;;;;;;8.38;3.67;;;19.90;95.90;;;;;;5045363;28;20104;-68
2021/09/15 10:01:41;;;;;;;7.22;3.03;;;19.90;95.80;;;;;;5029880;28;20018;-68
2021/09/15 10:04:07;;;;;;;5.40;3.35;;;19.80;95.70;;;;;;5011957;28;20021;-65
2021/09/15 10:06:35;;;;;;;4.95;3.17;;;19.80;95.70;;;;;;5029795;28;20033;-68
2021/09/15 10:09:01;;;;;;;4.72;3.08;;;19.80;95.80;;;;;;5030019;28;20351;-67
2021/09/15 10:11:27;;;;;;;6.22;2.60;;;19.70;95.80;;;;;;5029903;28;20097;-68
2021/09/15 10:13:52;;;;;;;3.10;2.38;;;19.70;95.80;;;;;;5029321;28;20030;-67
2021/09/15 10:16:21;;;;;;;2.88;2.17;;;19.70;95.70;;;;;;5029695;28;20099;-68
2021/09/15 10:18:57;;;;;;;3.05;2.67;;;19.60;95.60;;;;;;5030106;28;20013;-68
2021/09/15 10:21:29;;;;;;;3.92;2.42;;;19.50;95.50;;;;;;5029785;28;20390;-68
2021/09/15 10:23:55;;;;;;;4.35;2.55;;;19.50;95.40;;;;;;5025489;28;20438;-68
2021/09/15 10:26:41;;;;;;;3.25;2.83;;;19.50;95.40;;;;;;5027800;28;20083;-68
2021/09/15 10:29:28;;;;;;;5.18;2.80;;;19.40;95.40;;;;;;5012407;28;20377;-68
2021/09/15 10:32:20;;;;;;;3.47;2.85;;;19.30;95.40;;;;;;5013900;28;20018;-68
2021/09/15 10:34:46;;;;;;;4.67;3.10;;;19.20;95.30;;;;;;5011343;28;20038;-67
2021/09/15 10:37:11;;;;;;;5.13;2.88;;;19.10;95.30;;;;;;5013596;28;20033;-68
2021/09/15 10:39:58;;;;;;;4.00;2.60;;;19.00;95.40;;;;;;5013910;28;20014;-68
2021/09/15 10:45:11;;;;;;;3.65;2.80;;;19.00;95.60;;;;;;5031410;28;20439;-68
2021/09/15 10:47:38;;;;;;;3.85;2.80;;;18.90;95.70;;;;;;5033358;28;20024;-68
2021/09/15 10:50:05;;;;;;;3.13;2.78;;;19.00;95.70;;;;;;5048723;28;20445;-68
2021/09/15 10:52:36;;;;;;;3.15;2.85;;;19.00;95.80;;;;;;5033333;28;20105;-67
2021/09/15 10:55:20;;;;;;;6.25;3.20;;;19.00;95.80;;;;;;5033478;28;20104;-68
2021/09/15 10:57:48;;;;;;;4.25;2.95;;;19.10;95.90;;;;;;5033362;28;20514;-67
2021/09/15 11:00:16;;;;;;;5.70;3.45;;;19.10;95.90;;;;;;5032949;28;20023;-68
2021/09/15 11:02:43;;;;;;;3.80;2.75;;;19.20;96.00;;;;;;5032566;28;20021;-67
2021/09/15 11:05:27;;;;;;;4.55;3.15;;;19.20;95.90;;;;;;5033050;28;20067;-67
2021/09/15 11:07:58;;;;;;;3.88;2.85;;;19.30;95.80;;;;;;5048018;28;20025;-67
2021/09/15 11:12:59;;;;;;;5.07;3.40;;;19.50;96.00;;;;;;5032075;28;20045;-67
2021/09/15 11:15:29;;;;;;;4.15;3.65;;;19.60;96.00;;;;;;5015037;28;20099;-67
2021/09/15 11:17:55;;;;;;;7.03;3.45;;;19.70;96.10;;;;;;5032807;28;20045;-68
2021/09/15 11:20:23;;;;;;;5.18;3.53;;;19.90;95.90;;;;;;5032464;28;20013;-67
2021/09/15 11:22:49;;;;;;;3.63;3.22;;;20.00;95.80;;;;;;5032082;28;20104;-68
2021/09/15 11:25:16;;;;;;;7.75;3.42;;;20.20;95.70;;;;;;5025479;28;20022;-67
2021/09/15 11:27:42;;;;;;;4.80;3.50;;;20.20;95.50;;;;;;5014372;28;20025;-67
2021/09/15 11:30:08;;;;;;;3.47;3.13;;;20.30;95.50;;;;;;5032171;28;20029;-68
2021/09/15 11:32:33;;;;;;;6.25;3.10;;;20.40;95.50;;;;;;5014567;28;20080;-67
2021/09/15 11:34:59;;;;;;;4.72;3.58;;;20.60;95.50;;;;;;5032230;28;20499;-67
2021/09/15 11:37:27;;;;;;;6.63;3.17;;;20.60;95.20;;;;;;5032054;28;20029;-68
2021/09/15 11:39:58;;;;;;;4.47;3.10;;;20.60;95.20;;;;;;5031456;28;20026;-67
2021/09/15 11:42:34;;;;;;;6.28;3.10;;;20.70;95.00;;;;;;5032183;28;20030;-67
2021/09/15 11:45:26;;;;;;;4.00;2.80;;;20.70;94.90;;;;;;5032307;28;20607;-67
2021/09/15 11:47:54;;;;;;;6.15;3.15;;;20.70;94.70;;;;;;5032186;28;20033;-67
2021/09/15 11:50:23;;;;;;;4.65;2.88;;;20.80;94.80;;;;;;5031837;28;20071;-67
2021/09/15 11:53:00;;;;;;;4.00;2.90;;;20.80;94.70;;;;;;5031707;28;20025;-68
2021/09/15 11:55:28;;;;;;;6.35;3.25;;;20.80;94.60;;;;;;5032029;28;20152;-68
2021/09/15 11:57:59;;;;;;;4.43;3.22;;;20.90;94.70;;;;;;5031867;28;20394;-67
2021/09/15 12:00:24;;;;;;;4.72;3.25;;;20.90;94.50;;;;;;5013987;28;20051;-67
2021/09/15 12:02:51;;;;;;;6.70;3.13;;;21.00;94.30;;;;;;5031816;28;20582;-67
2021/09/15 12:05:19;;;;;;;4.13;2.83;;;21.00;94.30;;;;;;5031785;28;20022;-67
2021/09/15 12:07:45;;;;;;;3.53;2.92;;;21.00;94.30;;;;;;5013949;28;20374;-67
2021/09/15 12:10:12;;;;;;;2.95;2.53;;;21.00;94.30;;;;;;5031867;28;20021;-67
2021/09/15 12:12:38;;;;;;;8.52;2.85;;;21.10;94.20;;;;;;5030741;28;20099;-67
2021/09/15 12:15:06;;;;;;;5.15;3.30;;;21.10;94.10;;;;;;5031574;28;20026;-67
2021/09/15 12:17:36;;;;;;;3.97;2.92;;;21.10;93.90;;;;;;5031601;28;20068;-67
2021/09/15 12:20:05;;;;;;;4.88;2.92;;;21.10;93.80;;;;;;5031796;28;20474;-68
2021/09/15 12:22:32;;;;;;;6.47;3.03;;;21.10;93.70;;;;;;5031573;28;20385;-67
2021/09/15 12:25:03;;;;;;;4.05;2.90;;;21.00;93.70;;;;;;5024451;28;20060;-67
2021/09/15 12:27:29;;;;;;;3.60;3.03;;;21.10;93.80;;;;;;5030791;28;20343;-67
2021/09/15 12:30:08;;;;;;;3.55;3.10;;;21.10;93.80;;;;;;5031474;28;20032;-67
2021/09/15 12:32:37;;;;;;;4.03;2.97;;;21.00;93.60;;;;;;5030917;28;20026;-67
2021/09/15 12:35:24;;;;;;;5.72;3.63;;;21.00;93.50;;;;;;5031381;28;20087;-67
2021/09/15 12:38:00;;;;;;;5.90;3.28;;;20.90;93.40;;;;;;5013457;28;20021;-67
2021/09/15 12:40:26;;;;;;;8.13;3.30;;;20.80;93.50;;;;;;5031407;28;20017;-67
2021/09/15 12:43:00;;;;;;;3.20;2.90;;;20.80;93.60;;;;;;5030410;28;20060;-67
2021/09/15 12:45:27;;;;;;;6.53;3.65;;;20.70;93.60;;;;;;5031133;28;20048;-67
2021/09/15 12:47:53;;;;;;;3.80;2.90;;;20.70;93.60;;;;;;5013430;28;20090;-67
2021/09/15 12:50:30;;;;;;;6.65;3.40;;;20.60;93.70;;;;;;5013374;28;20032;-67